createdAt,value
2023-12-14T00:01:31.489Z,16.20
2023-12-14T00:04:01.020Z,8.20
2023-12-14T00:06:29.262Z,13.50
2023-12-14T00:08:57.361Z,10.00
2023-12-14T00:11:25.445Z,13.50
2023-12-14T00:13:53.630Z,16.00
2023-12-14T00:16:21.756Z,16.80
2023-12-14T00:18:49.887Z,13.00
2023-12-14T00:21:19.349Z,17.00
2023-12-14T00:23:47.441Z,16.80
2023-12-14T00:26:15.530Z,11.00
2023-12-14T00:28:43.692Z,13.00
2023-12-14T00:31:11.869Z,20.00
2023-12-14T00:33:40.016Z,15.75
2023-12-14T00:36:08.855Z,15.50
2023-12-14T00:38:38.308Z,17.33
2023-12-14T00:41:06.517Z,12.75
2023-12-14T00:43:34.669Z,17.00
2023-12-14T00:46:02.730Z,15.25
2023-12-14T00:48:30.842Z,19.20
2023-12-14T00:50:58.927Z,16.75
2023-12-14T00:53:26.997Z,20.20
2023-12-14T00:55:56.431Z,21.60
2023-12-14T00:58:24.552Z,21.25
2023-12-14T01:00:51.635Z,17.00
2023-12-14T01:03:19.756Z,17.80
2023-12-14T01:05:47.874Z,14.20
2023-12-14T01:08:16.099Z,18.00
2023-12-14T01:10:44.438Z,20.20
2023-12-14T01:13:13.885Z,26.00
2023-12-14T01:15:41.993Z,21.50
2023-12-14T01:18:10.133Z,30.00
2023-12-14T01:20:38.966Z,28.00
2023-12-14T01:23:07.059Z,20.60
2023-12-14T01:25:35.236Z,26.80
2023-12-14T01:28:02.340Z,19.80
2023-12-14T01:30:31.803Z,26.40
2023-12-14T01:32:59.910Z,15.20
2023-12-14T01:35:29.764Z,29.00
2023-12-14T01:37:57.901Z,21.50
2023-12-14T01:40:26.021Z,23.80
2023-12-14T01:42:54.089Z,22.75
2023-12-14T01:45:22.528Z,30.00
2023-12-14T01:47:52.029Z,22.80
2023-12-14T01:50:20.159Z,29.50
2023-12-14T01:52:48.372Z,20.40
2023-12-14T01:55:16.471Z,22.60
2023-12-14T01:57:44.553Z,25.50
2023-12-14T02:00:15.718Z,22.25
2023-12-14T02:02:43.802Z,20.75
2023-12-14T02:05:13.268Z,27.50
2023-12-14T02:07:42.171Z,25.50
2023-12-14T02:10:10.829Z,21.50
2023-12-14T02:12:38.901Z,26.80
2023-12-14T02:15:08.095Z,20.00
2023-12-14T02:17:36.192Z,30.25
2023-12-14T02:20:04.499Z,32.00
2023-12-14T02:22:38.316Z,29.00
2023-12-14T02:25:07.560Z,24.20
2023-12-14T02:27:35.603Z,22.00
2023-12-14T02:30:03.664Z,27.80
2023-12-14T02:32:31.731Z,20.20
2023-12-14T02:34:59.859Z,21.00
2023-12-14T02:37:27.923Z,21.00
2023-12-14T02:39:57.398Z,27.50
2023-12-14T02:42:25.496Z,28.40
2023-12-14T02:44:53.861Z,31.60
2023-12-14T02:47:21.981Z,20.20
2023-12-14T02:49:50.162Z,31.50
2023-12-14T02:52:18.265Z,19.20
2023-12-14T02:54:46.392Z,20.50
2023-12-14T02:57:16.099Z,27.00
2023-12-14T02:59:44.212Z,26.50
2023-12-14T03:02:12.400Z,30.25
2023-12-14T03:04:40.891Z,20.80
2023-12-14T03:07:09.008Z,34.00
2023-12-14T03:09:37.099Z,26.00
2023-12-14T03:12:05.897Z,32.00
2023-12-14T03:14:35.684Z,27.00
2023-12-14T03:17:03.864Z,28.00
2023-12-14T03:19:31.993Z,32.20
2023-12-14T03:22:00.175Z,29.20
2023-12-14T03:24:28.293Z,33.60
2023-12-14T03:26:55.438Z,30.00
2023-12-14T03:29:23.544Z,28.50
2023-12-14T03:31:53.096Z,29.50
2023-12-14T03:34:21.209Z,24.00
2023-12-14T03:36:49.346Z,23.50
2023-12-14T03:39:17.709Z,29.20
2023-12-14T03:41:45.846Z,26.60
2023-12-14T03:44:14.010Z,27.00
2023-12-14T03:46:42.127Z,36.00
2023-12-14T03:49:11.964Z,24.00
2023-12-14T03:51:40.117Z,31.40
2023-12-14T03:54:08.241Z,30.80
2023-12-14T03:56:36.333Z,30.80
2023-12-14T03:59:04.468Z,27.25
2023-12-14T04:01:32.720Z,24.00
2023-12-14T04:04:00.865Z,27.00
2023-12-14T04:06:30.314Z,25.50
2023-12-14T04:08:58.453Z,22.00
2023-12-14T04:11:26.633Z,24.80
2023-12-14T04:13:56.149Z,23.20
2023-12-14T04:16:26.276Z,29.00
2023-12-14T04:18:54.720Z,24.80
2023-12-14T04:21:22.905Z,35.80
2023-12-14T04:23:52.357Z,31.00
2023-12-14T04:26:20.473Z,23.00
2023-12-14T04:28:48.616Z,23.40
2023-12-14T04:31:16.832Z,26.00
2023-12-14T04:33:44.980Z,27.00
2023-12-14T04:36:13.230Z,21.00
2023-12-14T04:38:41.333Z,23.20
2023-12-14T04:41:10.860Z,32.00
2023-12-14T04:43:39.058Z,25.60
2023-12-14T04:46:07.653Z,27.25
2023-12-14T04:48:35.923Z,28.00
2023-12-14T04:51:04.255Z,29.00
2023-12-14T04:53:32.393Z,26.00
2023-12-14T04:56:00.646Z,20.50
2023-12-14T04:58:30.155Z,24.20
2023-12-14T05:00:58.339Z,30.50
2023-12-14T05:03:26.684Z,23.20
2023-12-14T05:05:54.828Z,26.50
2023-12-14T05:08:22.957Z,27.50
2023-12-14T05:10:51.096Z,32.50
2023-12-14T05:13:19.686Z,25.80
2023-12-14T05:15:49.143Z,36.00
2023-12-14T05:18:17.447Z,28.00
2023-12-14T05:20:46.926Z,30.80
2023-12-14T05:23:15.542Z,33.00
2023-12-14T05:25:43.733Z,28.25
2023-12-14T05:28:11.876Z,28.50
2023-12-14T05:30:40.017Z,30.75
2023-12-14T05:33:12.846Z,30.00
2023-12-14T05:35:41.305Z,40.25
2023-12-14T05:38:09.453Z,28.80
2023-12-14T05:40:38.136Z,37.50
2023-12-14T05:43:06.270Z,23.40
2023-12-14T05:45:34.394Z,27.80
2023-12-14T05:48:03.165Z,31.00
2023-12-14T05:50:32.699Z,32.75
2023-12-14T05:53:00.823Z,30.80
2023-12-14T05:55:28.978Z,28.00
2023-12-14T05:57:57.732Z,37.80
2023-12-14T06:00:26.104Z,30.00
2023-12-14T06:02:54.279Z,32.00
2023-12-14T06:05:22.706Z,26.00
2023-12-14T06:07:52.219Z,28.25
2023-12-14T06:10:20.538Z,26.50
2023-12-14T06:12:48.645Z,33.00
2023-12-14T06:15:16.855Z,32.50
2023-12-14T06:17:45.004Z,33.25
2023-12-14T06:20:14.796Z,23.20
2023-12-14T06:22:43.011Z,26.40
2023-12-14T06:25:13.046Z,18.50
2023-12-14T06:27:41.477Z,29.00
2023-12-14T06:30:12.148Z,21.60
2023-12-14T06:32:40.773Z,33.75
2023-12-14T06:35:09.347Z,22.50
2023-12-14T06:37:37.500Z,21.50
2023-12-14T06:40:06.763Z,26.40
2023-12-14T06:42:36.378Z,21.80
2023-12-14T06:45:05.151Z,25.40
2023-12-14T06:47:33.412Z,23.60
2023-12-14T06:50:01.732Z,26.40
2023-12-14T06:52:30.513Z,24.40
2023-12-14T06:54:58.640Z,28.75
2023-12-14T06:57:28.045Z,26.00
2023-12-14T06:59:57.685Z,18.50
2023-12-14T07:02:25.871Z,23.60
2023-12-14T07:04:54.071Z,19.25
2023-12-14T07:07:22.198Z,19.00
2023-12-14T07:09:50.519Z,17.00
2023-12-14T07:12:19.149Z,23.00
2023-12-14T07:14:47.294Z,23.25
2023-12-14T07:17:16.886Z,19.00
2023-12-14T07:19:45.107Z,21.60
2023-12-14T07:22:13.216Z,24.50
2023-12-14T07:24:49.123Z,20.25
2023-12-14T07:27:21.123Z,19.00
2023-12-14T07:29:49.240Z,17.25
2023-12-14T07:32:18.924Z,28.50
2023-12-14T07:34:47.196Z,13.40
2023-12-14T07:37:15.488Z,23.20
2023-12-14T07:39:43.681Z,26.50
2023-12-14T07:42:10.824Z,32.00
2023-12-14T07:44:41.690Z,18.00
2023-12-14T07:47:09.981Z,25.20
2023-12-14T07:49:39.462Z,15.20
2023-12-14T07:52:08.193Z,22.40
2023-12-14T07:54:36.781Z,18.00
2023-12-14T07:57:05.371Z,27.50
2023-12-14T07:59:33.505Z,24.60
2023-12-14T08:02:01.742Z,25.20
2023-12-14T08:04:29.893Z,17.40
2023-12-14T08:06:59.382Z,24.50
2023-12-14T08:09:27.485Z,22.20
2023-12-14T08:11:55.619Z,14.20
2023-12-14T08:14:23.783Z,17.00
2023-12-14T08:16:52.127Z,18.00
2023-12-14T08:19:20.301Z,19.00
2023-12-14T08:21:48.417Z,16.00
2023-12-14T08:24:17.893Z,14.00
2023-12-14T08:26:46.301Z,17.50
2023-12-14T08:29:14.465Z,23.00
2023-12-14T08:31:42.774Z,19.00
2023-12-14T08:34:11.368Z,20.20
2023-12-14T08:36:39.490Z,16.60
2023-12-14T08:39:07.963Z,25.80
2023-12-14T08:41:37.399Z,22.00
2023-12-14T08:44:06.008Z,25.20
2023-12-14T08:46:41.148Z,21.00
2023-12-14T08:49:09.374Z,27.00
2023-12-14T08:51:37.533Z,20.20
2023-12-14T08:54:05.701Z,16.25
2023-12-14T08:56:33.838Z,18.50
2023-12-14T08:59:05.260Z,28.00
2023-12-14T09:01:34.147Z,18.75
2023-12-14T09:04:02.428Z,18.25
2023-12-14T09:06:30.616Z,18.20
2023-12-14T09:08:58.724Z,18.60
2023-12-14T09:11:26.847Z,19.00
2023-12-14T09:13:54.980Z,19.00
2023-12-14T09:16:24.480Z,18.20
2023-12-14T09:18:51.625Z,17.00
2023-12-14T09:21:21.561Z,22.40
2023-12-14T09:23:51.762Z,16.00
2023-12-14T09:26:19.948Z,14.40
2023-12-14T09:28:48.106Z,17.80
2023-12-14T09:31:17.372Z,16.40
2023-12-14T09:33:46.946Z,13.60
2023-12-14T09:36:15.118Z,22.60
2023-12-14T09:38:43.248Z,20.40
2023-12-14T09:41:11.431Z,21.20
2023-12-14T09:43:39.706Z,19.60
2023-12-14T09:46:08.364Z,15.20
2023-12-14T09:48:36.559Z,14.00
2023-12-14T09:51:07.437Z,16.00
2023-12-14T09:53:35.558Z,16.60
2023-12-14T09:56:03.681Z,22.00
2023-12-14T09:58:34.002Z,16.50
2023-12-14T10:01:02.488Z,16.00
2023-12-14T10:03:31.065Z,18.40
2023-12-14T10:06:00.198Z,13.50
2023-12-14T10:08:29.896Z,14.67
2023-12-14T10:10:58.030Z,15.40
2023-12-14T10:13:39.291Z,17.60
2023-12-14T10:16:07.813Z,14.60
2023-12-14T10:18:37.699Z,18.00
2023-12-14T10:21:08.571Z,14.40
2023-12-14T10:23:38.013Z,15.00
2023-12-14T10:26:07.690Z,17.75
2023-12-14T10:28:34.888Z,16.50
2023-12-14T10:31:03.078Z,15.20
2023-12-14T10:33:31.244Z,12.20
2023-12-14T10:35:59.444Z,13.20
2023-12-14T10:38:27.733Z,18.00
2023-12-14T10:40:57.608Z,14.80
2023-12-14T10:43:47.323Z,23.50
2023-12-14T10:46:14.182Z,17.80
2023-12-14T10:48:43.959Z,18.50
2023-12-14T10:51:12.708Z,13.40
2023-12-14T10:53:41.056Z,17.25
2023-12-14T10:56:12.023Z,21.20
2023-12-14T10:58:50.109Z,12.60
2023-12-14T11:01:18.779Z,11.75
2023-12-14T11:03:47.777Z,14.80
2023-12-14T11:06:33.995Z,14.75
2023-12-14T11:09:07.411Z,16.75
2023-12-14T11:11:45.086Z,16.00
2023-12-14T11:14:13.747Z,19.50
2023-12-14T11:16:46.746Z,13.00
2023-12-14T11:19:31.386Z,19.40
2023-12-14T11:22:16.176Z,18.50
2023-12-14T11:24:44.903Z,18.75
2023-12-14T11:27:14.755Z,15.00
2023-12-14T11:29:43.070Z,19.80
2023-12-14T11:32:11.373Z,12.50
2023-12-14T11:34:41.628Z,16.00
2023-12-14T11:37:10.187Z,12.00
2023-12-14T11:39:39.604Z,16.50
2023-12-14T11:42:09.747Z,15.50
2023-12-14T11:44:39.703Z,17.80
2023-12-14T11:47:07.890Z,15.60
2023-12-14T11:49:37.793Z,16.80
2023-12-14T11:52:06.880Z,13.00
2023-12-14T11:54:35.043Z,13.60
2023-12-14T11:57:04.043Z,19.00
2023-12-14T11:59:33.470Z,13.40
2023-12-14T12:02:03.767Z,16.00
2023-12-14T12:04:31.961Z,19.80
2023-12-14T12:07:04.068Z,14.25
2023-12-14T12:09:38.823Z,16.00
2023-12-14T12:12:10.730Z,12.00
2023-12-14T12:14:38.944Z,13.60
2023-12-14T12:17:08.681Z,15.00
2023-12-14T12:19:37.303Z,15.60
2023-12-14T12:22:05.814Z,13.60
2023-12-14T12:24:34.817Z,12.75
2023-12-14T12:27:03.500Z,14.00
2023-12-14T12:29:31.671Z,12.00
2023-12-14T12:31:59.897Z,12.00
2023-12-14T12:34:29.368Z,19.00
2023-12-14T12:36:58.932Z,13.80
2023-12-14T12:39:27.029Z,18.40
2023-12-14T12:41:55.139Z,11.50
2023-12-14T12:44:23.265Z,18.40
2023-12-14T12:46:58.315Z,12.60
2023-12-14T12:49:34.615Z,16.80
2023-12-14T12:52:02.790Z,10.00
2023-12-14T12:54:30.870Z,12.60
2023-12-14T12:56:58.997Z,13.80
2023-12-14T12:59:27.110Z,11.20
2023-12-14T13:01:55.638Z,11.00
2023-12-14T13:04:24.029Z,15.00
2023-12-14T13:06:53.529Z,14.00
2023-12-14T13:09:21.943Z,12.00
2023-12-14T13:11:50.016Z,14.00
2023-12-14T13:14:18.204Z,15.60
2023-12-14T13:16:46.360Z,15.50
2023-12-14T13:19:15.014Z,16.00
2023-12-14T13:21:43.130Z,14.25
2023-12-14T13:24:12.655Z,12.50
2023-12-14T13:26:40.785Z,18.00
2023-12-14T13:29:08.920Z,9.00
2023-12-14T13:31:37.024Z,9.60
2023-12-14T13:34:05.302Z,9.00
2023-12-14T13:36:33.445Z,14.50
2023-12-14T13:39:03.183Z,12.00
2023-12-14T13:41:45.286Z,13.00
2023-12-14T13:44:18.557Z,10.00
2023-12-14T13:46:46.744Z,11.00
2023-12-14T13:49:14.958Z,11.00
2023-12-14T13:51:43.118Z,14.40
2023-12-14T13:54:11.205Z,9.00
2023-12-14T13:56:41.525Z,16.60
2023-12-14T13:59:09.634Z,9.00
2023-12-14T14:01:38.998Z,13.25
2023-12-14T14:04:07.211Z,10.80
2023-12-14T14:06:35.397Z,19.25
2023-12-14T14:09:05.010Z,15.40
2023-12-14T14:11:33.268Z,13.00
2023-12-14T14:14:02.897Z,10.50
2023-12-14T14:16:31.016Z,18.00
2023-12-14T14:19:00.009Z,13.20
2023-12-14T14:21:28.156Z,9.20
2023-12-14T14:23:56.276Z,8.50
2023-12-14T14:26:24.387Z,12.60
2023-12-14T14:28:52.518Z,15.00
2023-12-14T14:31:21.989Z,11.00
2023-12-14T14:33:50.296Z,10.00
2023-12-14T14:36:18.569Z,11.00
2023-12-14T14:38:46.689Z,12.40
2023-12-14T14:41:14.793Z,12.80
2023-12-14T14:43:44.245Z,14.00
2023-12-14T14:46:12.362Z,7.50
2023-12-14T14:48:42.616Z,6.60
2023-12-14T14:51:10.759Z,13.20
2023-12-14T14:53:39.454Z,12.60
2023-12-14T14:56:08.628Z,13.20
2023-12-14T14:58:36.763Z,10.00
2023-12-14T15:01:05.120Z,11.50
2023-12-14T15:03:33.421Z,10.67
2023-12-14T15:06:03.115Z,9.00
2023-12-14T15:08:31.279Z,7.80
2023-12-14T15:10:59.469Z,8.40
2023-12-14T15:13:29.733Z,8.80
2023-12-14T15:15:57.913Z,14.20
2023-12-14T15:18:26.106Z,8.60
2023-12-14T15:20:54.983Z,12.75
2023-12-14T15:23:24.809Z,10.60
2023-12-14T15:25:52.985Z,7.00
2023-12-14T15:28:21.122Z,7.00
2023-12-14T15:30:49.258Z,7.50
2023-12-14T15:33:17.614Z,8.00
2023-12-14T15:35:46.561Z,9.00
2023-12-14T15:38:14.689Z,12.00
2023-12-14T15:40:44.274Z,12.60
2023-12-14T15:43:12.418Z,7.00
2023-12-14T15:45:40.514Z,13.00
2023-12-14T15:48:08.820Z,10.60
2023-12-14T15:50:39.087Z,11.20
2023-12-14T15:53:09.991Z,10.20
2023-12-14T15:55:38.184Z,7.00
2023-12-14T15:58:07.692Z,8.60
2023-12-14T16:00:35.960Z,6.00
2023-12-14T16:03:04.418Z,10.00
2023-12-14T16:05:32.598Z,12.40
2023-12-14T16:08:00.782Z,12.00
2023-12-14T16:10:28.895Z,9.00
2023-12-14T16:12:57.010Z,10.60
2023-12-14T16:15:26.532Z,12.00
2023-12-14T16:17:54.799Z,10.20
2023-12-14T16:20:24.654Z,8.00
2023-12-14T16:22:52.829Z,6.60
2023-12-14T16:25:20.978Z,8.00
2023-12-14T16:27:49.187Z,4.80
2023-12-14T16:30:18.310Z,11.00
2023-12-14T16:32:48.127Z,8.00
2023-12-14T16:35:16.941Z,6.00
2023-12-14T16:37:45.104Z,9.00
2023-12-14T16:40:13.694Z,11.50
2023-12-14T16:42:41.773Z,7.00
2023-12-14T16:45:12.186Z,4.00
2023-12-14T16:47:42.368Z,9.40
2023-12-14T16:50:13.057Z,6.00
2023-12-14T16:52:41.232Z,12.00
2023-12-14T16:55:10.211Z,6.20
2023-12-14T16:57:38.342Z,8.60
2023-12-14T17:00:07.396Z,13.25
2023-12-14T17:02:35.797Z,8.00
2023-12-14T17:05:04.673Z,8.50
2023-12-14T17:07:34.275Z,11.00
2023-12-14T17:10:02.456Z,9.00
2023-12-14T17:12:30.800Z,8.75
2023-12-14T17:14:59.052Z,13.50
2023-12-14T17:17:31.414Z,8.25
2023-12-14T17:19:59.849Z,12.50
2023-12-14T17:22:29.443Z,9.00
2023-12-14T17:24:58.885Z,7.00
2023-12-14T17:27:27.404Z,10.40
2023-12-14T17:29:55.520Z,11.00
2023-12-14T17:32:23.658Z,6.60
2023-12-14T17:34:52.738Z,6.00
2023-12-14T17:37:21.156Z,9.00
2023-12-14T17:39:49.365Z,10.00
2023-12-14T17:42:20.174Z,7.75
2023-12-14T17:44:48.670Z,9.00
2023-12-14T17:47:16.795Z,8.50
2023-12-14T17:49:45.002Z,9.00
2023-12-14T17:52:14.280Z,7.50
2023-12-14T17:54:42.406Z,10.80
2023-12-14T17:57:10.650Z,7.00
2023-12-14T17:59:41.245Z,9.00
2023-12-14T18:02:09.408Z,9.80
2023-12-14T18:04:40.252Z,8.40
2023-12-14T18:07:08.372Z,7.25
2023-12-14T18:09:36.448Z,4.00
2023-12-14T18:12:05.013Z,6.00
2023-12-14T18:14:33.117Z,8.00
2023-12-14T18:17:02.617Z,6.75
2023-12-14T18:19:31.045Z,12.00
2023-12-14T18:21:59.176Z,9.00
2023-12-14T18:24:27.262Z,8.00
2023-12-14T18:26:55.392Z,8.40
2023-12-14T18:29:24.431Z,7.75
2023-12-14T18:31:52.624Z,8.00
2023-12-14T18:34:22.262Z,13.00
2023-12-14T18:36:50.387Z,7.00
2023-12-14T18:39:18.475Z,8.00
2023-12-14T18:41:46.613Z,11.00
2023-12-14T18:44:14.738Z,7.60
2023-12-14T18:46:42.921Z,8.60
2023-12-14T18:49:11.165Z,8.00
2023-12-14T18:51:40.681Z,11.00
2023-12-14T18:54:11.498Z,9.00
2023-12-14T18:56:39.645Z,8.00
2023-12-14T18:59:07.861Z,7.60
2023-12-14T19:01:36.054Z,12.00
2023-12-14T19:04:04.504Z,11.00
2023-12-14T19:06:32.618Z,7.40
2023-12-14T19:09:02.088Z,12.00
2023-12-14T19:11:30.214Z,8.20
2023-12-14T19:13:58.387Z,9.00
2023-12-14T19:16:26.742Z,9.00
2023-12-14T19:18:56.022Z,8.40
2023-12-14T19:21:24.419Z,8.25
2023-12-14T19:23:52.750Z,11.00
2023-12-14T19:26:23.406Z,8.00
2023-12-14T19:28:51.608Z,6.60
2023-12-14T19:31:19.687Z,7.75
2023-12-14T19:33:48.141Z,4.40
2023-12-14T19:36:16.404Z,8.00
2023-12-14T19:38:45.565Z,7.00
2023-12-14T19:41:13.958Z,6.60
2023-12-14T19:43:45.553Z,8.60
2023-12-14T19:46:15.451Z,13.50
2023-12-14T19:48:43.611Z,8.00
2023-12-14T19:51:11.774Z,10.80
2023-12-14T19:53:39.863Z,12.80
2023-12-14T19:56:10.915Z,6.20
2023-12-14T19:58:39.046Z,8.00
2023-12-14T20:01:09.072Z,6.00
2023-12-14T20:03:37.711Z,12.00
2023-12-14T20:06:06.520Z,10.00
2023-12-14T20:08:34.626Z,8.40
2023-12-14T20:11:02.734Z,14.20
2023-12-14T20:13:30.845Z,7.33
2023-12-14T20:15:59.000Z,8.00
2023-12-14T20:18:28.582Z,13.25
2023-12-14T20:20:56.752Z,7.00
2023-12-14T20:23:24.941Z,7.75
2023-12-14T20:25:54.020Z,9.80
2023-12-14T20:28:22.186Z,11.25
2023-12-14T20:30:50.362Z,9.80
2023-12-14T20:33:18.649Z,8.20
2023-12-14T20:35:48.159Z,11.00
2023-12-14T20:38:16.392Z,15.20
2023-12-14T20:40:44.631Z,11.00
2023-12-14T20:43:12.742Z,8.60
2023-12-14T20:45:40.825Z,12.00
2023-12-14T20:50:38.355Z,9.75
2023-12-14T20:53:07.950Z,6.00
2023-12-14T20:55:36.143Z,8.00
2023-12-14T20:58:07.814Z,7.00
2023-12-14T21:00:36.273Z,8.00
2023-12-14T21:03:04.437Z,11.00
2023-12-14T21:05:42.626Z,6.60
2023-12-14T21:08:15.736Z,9.00
2023-12-14T21:10:44.053Z,8.00
2023-12-14T21:13:12.169Z,7.00
2023-12-14T21:15:40.300Z,9.00
2023-12-14T21:18:08.735Z,12.00
2023-12-14T21:20:37.029Z,7.00
2023-12-14T21:23:05.273Z,8.00
2023-12-14T21:25:41.864Z,9.50
2023-12-14T21:28:09.537Z,8.60
2023-12-14T21:30:37.746Z,6.40
2023-12-14T21:33:06.061Z,8.00
2023-12-14T21:35:34.276Z,5.00
2023-12-14T21:38:02.521Z,8.00
2023-12-14T21:40:30.651Z,14.80
2023-12-14T21:43:00.170Z,7.50
2023-12-14T21:45:28.262Z,7.00
2023-12-14T21:47:56.766Z,9.00
2023-12-14T21:50:25.056Z,11.00
2023-12-14T21:52:53.321Z,8.40
2023-12-14T21:55:21.551Z,9.80
2023-12-14T21:57:49.689Z,9.00
2023-12-14T22:00:20.763Z,11.50
2023-12-14T22:02:49.137Z,13.00
2023-12-14T22:05:17.372Z,11.00
2023-12-14T22:07:45.579Z,8.50
2023-12-14T22:10:17.267Z,9.00
2023-12-14T22:12:45.902Z,9.00
2023-12-14T22:15:14.143Z,8.00
2023-12-14T22:17:43.922Z,6.50
2023-12-14T22:20:13.296Z,8.20
2023-12-14T22:22:41.424Z,8.00
2023-12-14T22:25:10.239Z,11.80
2023-12-14T22:27:38.599Z,7.60
2023-12-14T22:30:08.944Z,9.00
2023-12-14T22:32:37.238Z,11.80
2023-12-14T22:35:07.782Z,6.75
2023-12-14T22:37:36.171Z,9.40
2023-12-14T22:40:04.698Z,8.00
2023-12-14T22:42:32.785Z,5.00
2023-12-14T22:45:00.891Z,11.00
2023-12-14T22:47:29.302Z,10.20
2023-12-14T22:49:57.511Z,11.00
2023-12-14T22:52:27.882Z,11.00
2023-12-14T22:54:57.865Z,7.00
2023-12-14T22:57:26.487Z,7.00
2023-12-14T22:59:54.578Z,8.00
2023-12-14T23:02:27.892Z,6.60
2023-12-14T23:04:56.174Z,8.00
2023-12-14T23:07:24.327Z,11.40
2023-12-14T23:09:53.769Z,16.40
2023-12-14T23:12:22.142Z,8.00
2023-12-14T23:14:50.314Z,13.00
2023-12-14T23:17:18.480Z,8.00
2023-12-14T23:19:46.583Z,8.20
2023-12-14T23:22:14.729Z,9.00
2023-12-14T23:24:42.824Z,9.00
2023-12-14T23:27:12.283Z,12.25
2023-12-14T23:29:40.779Z,9.40
2023-12-14T23:32:09.763Z,8.00
2023-12-14T23:34:37.890Z,11.40
2023-12-14T23:37:06.021Z,8.40
2023-12-14T23:39:34.864Z,6.00
2023-12-14T23:42:03.171Z,9.00
2023-12-14T23:44:32.750Z,12.00
2023-12-14T23:47:00.918Z,10.80
2023-12-14T23:49:29.203Z,7.00
2023-12-14T23:51:57.318Z,7.00
2023-12-14T23:54:25.426Z,8.00
2023-12-14T23:56:53.520Z,10.20
2023-12-14T23:59:21.675Z,7.75
